Time;durP1;ratioP1;P1;durP2;ratioP2;P2;SDS_P1;SDS_P2;PMS_P1;PMS_P2;Temp;Humidity;BMP_temperature;BMP_pressure;BME280_temperature;BME280_humidity;BME280_pressure;Samples;Min_cycle;Max_cycle;Signal;HPM_P1;HPM_P2
2024/03/25 00:02:04;;;;;;;7.80;2.13;;;;;;;;;;6016661;23;20445;-84
2024/03/25 00:04:31;;;;;;;5.80;2.90;;;;;;;;;;6016637;23;20458;-85
2024/03/25 00:06:58;;;;;;;8.50;3.50;;;;;;;;;;6017955;23;20402;-84
2024/03/25 00:09:34;;;;;;;4.10;2.03;;;;;;;;;;6027356;23;20443;-85
2024/03/25 00:12:07;;;;;;;11.00;3.57;;;;;;;;;;6015424;23;20415;-85
2024/03/25 00:14:39;;;;;;;10.00;3.10;;;;;;;;;;6031556;23;20401;-87
2024/03/25 00:17:11;;;;;;;10.73;3.20;;;;;;;;;;6038702;23;20821;-87
2024/03/25 00:20:00;;;;;;;8.63;2.40;;;;;;;;;;6034646;23;20418;-86
2024/03/25 00:22:29;;;;;;;5.77;4.63;;;;;;;;;;6023458;23;21337;-85
2024/03/25 00:25:08;;;;;;;7.03;2.97;;;;;;;;;;6020146;23;20416;-85
2024/03/25 00:28:00;;;;;;;7.37;2.80;;;;;;;;;;6053003;23;20419;-83
2024/03/25 00:31:04;;;;;;;7.07;2.87;;;;;;;;;;6051806;23;20425;-87
2024/03/25 00:34:00;;;;;;;12.43;3.17;;;;;;;;;;6020582;23;20422;-85
2024/03/25 00:36:26;;;;;;;9.90;3.60;;;;;;;;;;6019444;23;20406;-85
2024/03/25 00:38:55;;;;;;;4.67;2.97;;;;;;;;;;6016840;23;20426;-87
2024/03/25 00:41:51;;;;;;;8.20;2.67;;;;;;;;;;6045877;23;20791;-86
2024/03/25 00:44:27;;;;;;;9.13;2.63;;;;;;;;;;6018686;23;20419;-87
2024/03/25 00:47:02;;;;;;;5.40;3.60;;;;;;;;;;6018100;23;20502;-85
2024/03/25 00:49:31;;;;;;;6.10;2.90;;;;;;;;;;6022886;23;20439;-86
2024/03/25 00:52:09;;;;;;;6.93;3.07;;;;;;;;;;6106442;23;20436;-87
2024/03/25 00:55:02;;;;;;;10.53;3.33;;;;;;;;;;6058920;23;20425;-87
2024/03/25 00:57:35;;;;;;;17.37;3.90;;;;;;;;;;6078235;23;20405;-88
2024/03/25 01:00:02;;;;;;;11.83;2.80;;;;;;;;;;6058129;23;20409;-87
2024/03/25 01:02:38;;;;;;;9.67;3.03;;;;;;;;;;6058299;23;20437;-87
2024/03/25 01:05:13;;;;;;;11.37;3.70;;;;;;;;;;6106041;23;20404;-87
2024/03/25 01:08:16;;;;;;;7.33;3.13;;;;;;;;;;6091020;23;20452;-88
2024/03/25 01:11:08;;;;;;;6.67;2.90;;;;;;;;;;6100473;23;20389;-86
2024/03/25 01:13:50;;;;;;;8.00;3.40;;;;;;;;;;6072202;23;20468;-86
2024/03/25 01:16:22;;;;;;;9.93;2.87;;;;;;;;;;6074843;23;20468;-84
2024/03/25 01:18:58;;;;;;;6.33;3.60;;;;;;;;;;6099256;23;20487;-86
2024/03/25 01:21:28;;;;;;;8.43;3.00;;;;;;;;;;6075183;23;20472;-89
2024/03/25 01:24:06;;;;;;;5.40;2.60;;;;;;;;;;6073123;23;20465;-89
2024/03/25 01:26:36;;;;;;;6.20;2.47;;;;;;;;;;6074161;23;20481;-87
2024/03/25 01:29:12;;;;;;;8.40;3.23;;;;;;;;;;6069698;23;20490;-88
2024/03/25 01:31:43;;;;;;;11.40;4.23;;;;;;;;;;6071157;23;20479;-90
2024/03/25 01:34:16;;;;;;;9.47;2.97;;;;;;;;;;6075091;23;20456;-89
2024/03/25 01:36:54;;;;;;;6.90;2.80;;;;;;;;;;6072862;23;20484;-87
2024/03/25 01:39:26;;;;;;;5.13;3.00;;;;;;;;;;6119739;23;20500;-89
2024/03/25 01:41:56;;;;;;;6.60;3.07;;;;;;;;;;6072716;23;20496;-87
2024/03/25 01:44:30;;;;;;;8.27;2.60;;;;;;;;;;6072446;23;20472;-88
2024/03/25 01:46:59;;;;;;;5.30;2.70;;;;;;;;;;6071821;23;20448;-88
2024/03/25 01:49:26;;;;;;;7.97;2.80;;;;;;;;;;6120114;23;20484;-85
2024/03/25 01:52:14;;;;;;;6.80;2.73;;;;;;;;;;6089383;23;20467;-90
2024/03/25 01:54:41;;;;;;;7.57;2.60;;;;;;;;;;6071507;23;20471;-89
2024/03/25 01:57:19;;;;;;;7.47;2.70;;;;;;;;;;6075555;23;20463;-87
2024/03/25 02:00:02;;;;;;;14.87;3.40;;;;;;;;;;6121961;23;20485;-86
2024/03/25 02:02:34;;;;;;;9.87;3.07;;;;;;;;;;6074691;23;20593;-87
2024/03/25 02:05:02;;;;;;;6.50;2.20;;;;;;;;;;6073736;23;20464;-87
2024/03/25 02:07:38;;;;;;;5.70;2.43;;;;;;;;;;6067284;23;20461;-87
2024/03/25 02:10:14;;;;;;;7.93;2.50;;;;;;;;;;6071320;23;20497;-89
2024/03/25 02:13:22;;;;;;;11.30;2.93;;;;;;;;;;6092736;23;20530;-89
2024/03/25 02:15:57;;;;;;;9.10;2.53;;;;;;;;;;6062730;23;20472;-85
2024/03/25 02:18:26;;;;;;;3.00;2.70;;;;;;;;;;6072281;23;20484;-88
2024/03/25 02:20:52;;;;;;;10.10;2.93;;;;;;;;;;6072682;23;20469;-86
2024/03/25 02:23:34;;;;;;;10.07;3.07;;;;;;;;;;6075313;23;20446;-88
2024/03/25 02:26:03;;;;;;;11.60;2.30;;;;;;;;;;6072550;23;20484;-88
2024/03/25 02:31:52;;;;;;;8.87;2.70;;;;;;;;;;6119983;23;20472;-89
2024/03/25 02:34:34;;;;;;;10.60;2.27;;;;;;;;;;6074195;23;20491;-88
2024/03/25 02:37:00;;;;;;;12.57;3.20;;;;;;;;;;6071510;23;20485;-87
2024/03/25 02:39:30;;;;;;;10.03;3.20;;;;;;;;;;6072633;23;20484;-87
2024/03/25 02:42:07;;;;;;;10.37;2.50;;;;;;;;;;6072474;23;20463;-87
2024/03/25 02:44:40;;;;;;;10.17;2.70;;;;;;;;;;6074591;23;20459;-88
2024/03/25 02:47:17;;;;;;;10.90;4.47;;;;;;;;;;6067786;23;20411;-87
2024/03/25 02:49:51;;;;;;;6.80;2.67;;;;;;;;;;6068501;23;20439;-85
2024/03/25 02:52:31;;;;;;;5.70;3.00;;;;;;;;;;6045635;23;20479;-86
2024/03/25 02:55:05;;;;;;;8.10;3.03;;;;;;;;;;6042901;23;20476;-87
2024/03/25 02:57:42;;;;;;;4.53;2.57;;;;;;;;;;6036438;23;20408;-86
2024/03/25 03:00:18;;;;;;;9.17;3.10;;;;;;;;;;6029748;23;20415;-86
2024/03/25 03:02:44;;;;;;;6.00;1.93;;;;;;;;;;6030721;23;20447;-88
2024/03/25 03:05:21;;;;;;;14.43;3.00;;;;;;;;;;6039921;23;20433;-88
2024/03/25 03:07:50;;;;;;;7.00;2.00;;;;;;;;;;6095270;23;20464;-86
2024/03/25 03:10:21;;;;;;;5.57;2.07;;;;;;;;;;6047761;23;20481;-88
2024/03/25 03:12:53;;;;;;;7.07;2.43;;;;;;;;;;6095095;23;20469;-87
2024/03/25 03:15:40;;;;;;;19.30;3.57;;;;;;;;;;6038401;23;20412;-86
2024/03/25 03:18:24;;;;;;;4.23;2.57;;;;;;;;;;6078125;23;20425;-84
2024/03/25 03:21:06;;;;;;;7.37;2.70;;;;;;;;;;6037894;23;20465;-86
2024/03/25 03:23:35;;;;;;;4.80;2.90;;;;;;;;;;6027413;23;20443;-87
2024/03/25 03:26:05;;;;;;;15.03;4.63;;;;;;;;;;6020204;23;20413;-85
2024/03/25 03:28:34;;;;;;;11.47;2.50;;;;;;;;;;6023753;23;20432;-86
2024/03/25 03:31:09;;;;;;;7.93;2.27;;;;;;;;;;6026064;23;20412;-86
2024/03/25 03:33:45;;;;;;;12.37;2.43;;;;;;;;;;6025298;23;20421;-88
2024/03/25 03:36:21;;;;;;;7.07;2.40;;;;;;;;;;6025017;23;20412;-87
2024/03/25 03:38:57;;;;;;;8.20;3.20;;;;;;;;;;6029425;23;20437;-86
2024/03/25 03:41:26;;;;;;;7.00;3.37;;;;;;;;;;6076161;23;20494;-87
2024/03/25 03:43:58;;;;;;;8.93;3.37;;;;;;;;;;6029019;23;20417;-85
2024/03/25 03:46:30;;;;;;;10.93;3.20;;;;;;;;;;6026809;23;20417;-85
2024/03/25 03:49:00;;;;;;;10.17;2.63;;;;;;;;;;6028228;23;20422;-86
2024/03/25 03:51:37;;;;;;;7.53;2.90;;;;;;;;;;6056085;23;20417;-87
2024/03/25 03:54:06;;;;;;;10.00;2.53;;;;;;;;;;6076444;23;20422;-87
2024/03/25 03:56:44;;;;;;;6.13;2.40;;;;;;;;;;6077075;23;20401;-86
2024/03/25 03:59:19;;;;;;;10.83;2.73;;;;;;;;;;6076604;23;20504;-86
2024/03/25 04:01:57;;;;;;;12.60;2.90;;;;;;;;;;6079072;23;20415;-86
2024/03/25 04:04:40;;;;;;;7.57;2.20;;;;;;;;;;6080251;23;20409;-86
2024/03/25 04:07:43;;;;;;;8.77;2.23;;;;;;;;;;6095966;23;20480;-86
2024/03/25 04:10:20;;;;;;;10.07;2.87;;;;;;;;;;6078341;23;20408;-86
2024/03/25 04:15:48;;;;;;;6.60;2.70;;;;;;;;;;6124035;23;20412;-86
2024/03/25 04:18:14;;;;;;;6.27;2.80;;;;;;;;;;6076471;23;20425;-85
2024/03/25 04:20:51;;;;;;;7.93;2.70;;;;;;;;;;6077897;23;20416;-86
2024/03/25 04:23:49;;;;;;;;;;;;;;;;;;;;;
2024/03/25 04:26:18;;;;;;;9.43;2.83;;;;;;;;;;6095474;23;20412;-85
2024/03/25 04:28:56;;;;;;;10.50;3.97;;;;;;;;;;6092005;23;20419;-86
2024/03/25 04:31:48;;;;;;;7.67;2.70;;;;;;;;;;6100242;23;20460;-89
2024/03/25 04:34:28;;;;;;;;;;;;;;;;;;;;;
2024/03/25 04:37:26;;;;;;;12.90;3.37;;;;;;;;;;6119627;23;20464;-87
2024/03/25 04:40:19;;;;;;;9.63;3.03;;;;;;;;;;6087069;23;20443;-87
2024/03/25 04:42:51;;;;;;;12.30;3.00;;;;;;;;;;6084028;23;20436;-88
2024/03/25 04:45:36;;;;;;;4.57;2.50;;;;;;;;;;6082156;23;20412;-86
2024/03/25 04:48:15;;;;;;;15.00;3.20;;;;;;;;;;6079994;23;20745;-86
2024/03/25 04:50:53;;;;;;;7.67;2.50;;;;;;;;;;6076420;23;20885;-86
2024/03/25 04:53:19;;;;;;;7.43;2.70;;;;;;;;;;6075710;23;20409;-87
2024/03/25 04:55:48;;;;;;;6.73;2.93;;;;;;;;;;6075964;23;20409;-86
2024/03/25 04:58:24;;;;;;;9.77;3.53;;;;;;;;;;6074360;23;20450;-87
2024/03/25 05:00:53;;;;;;;8.70;3.03;;;;;;;;;;6079277;23;21039;-87
2024/03/25 05:03:23;;;;;;;8.53;3.47;;;;;;;;;;6078010;23;20448;-86
2024/03/25 05:05:59;;;;;;;7.30;3.70;;;;;;;;;;6081679;23;20679;-90
2024/03/25 05:08:38;;;;;;;16.23;2.67;;;;;;;;;;6093441;23;20490;-88
2024/03/25 05:11:04;;;;;;;7.37;3.03;;;;;;;;;;6130319;23;20403;-85
2024/03/25 05:13:33;;;;;;;10.97;3.50;;;;;;;;;;6077891;23;20926;-84
2024/03/25 05:16:12;;;;;;;;;;;;;;;;;;;;;
2024/03/25 05:18:56;;;;;;;14.93;3.10;;;;;;;;;;6099363;23;20429;-86
2024/03/25 05:21:28;;;;;;;12.50;4.07;;;;;;;;;;6077232;23;20410;-88
2024/03/25 05:23:55;;;;;;;8.93;3.37;;;;;;;;;;6073521;23;20448;-87
2024/03/25 05:26:27;;;;;;;6.80;3.40;;;;;;;;;;6125250;23;20435;-87
2024/03/25 05:28:57;;;;;;;8.00;3.90;;;;;;;;;;6075529;23;20424;-87
2024/03/25 05:31:27;;;;;;;8.50;3.03;;;;;;;;;;6076373;23;20407;-87
2024/03/25 05:33:53;;;;;;;8.73;3.30;;;;;;;;;;6076008;23;20897;-86
2024/03/25 05:36:23;;;;;;;6.03;2.97;;;;;;;;;;6122658;23;20400;-86
2024/03/25 05:39:11;;;;;;;11.00;3.17;;;;;;;;;;6076562;23;20435;-85
2024/03/25 05:41:38;;;;;;;5.57;2.90;;;;;;;;;;6076095;23;20401;-87
2024/03/25 05:44:07;;;;;;;7.53;3.27;;;;;;;;;;6077740;23;20444;-84
2024/03/25 05:46:45;;;;;;;10.43;3.83;;;;;;;;;;6080785;23;20400;-88
2024/03/25 05:49:20;;;;;;;12.97;3.17;;;;;;;;;;6086119;23;20428;-86
2024/03/25 05:51:51;;;;;;;10.33;3.30;;;;;;;;;;6078782;23;20409;-87
2024/03/25 05:54:34;;;;;;;7.00;3.30;;;;;;;;;;6079366;23;20848;-86
2024/03/25 05:57:14;;;;;;;5.80;3.40;;;;;;;;;;6088271;23;20411;-88
2024/03/25 05:59:43;;;;;;;8.60;3.17;;;;;;;;;;6147323;23;20480;-86
2024/03/25 06:02:09;;;;;;;7.53;3.80;;;;;;;;;;6097768;23;20519;-86
2024/03/25 06:04:59;;;;;;;;;;;;;;;;;;;;;
2024/03/25 06:07:26;;;;;;;7.80;3.40;;;;;;;;;;6116107;23;20432;-87
2024/03/25 06:10:09;;;;;;;9.60;3.37;;;;;;;;;;6132156;23;20432;-87
2024/03/25 06:12:38;;;;;;;13.87;3.20;;;;;;;;;;6081087;23;20411;-85
2024/03/25 06:15:15;;;;;;;8.10;3.13;;;;;;;;;;6082201;23;20471;-84
2024/03/25 06:17:44;;;;;;;8.33;4.13;;;;;;;;;;6079929;23;20408;-85
2024/03/25 06:20:16;;;;;;;6.73;4.20;;;;;;;;;;6083417;23;20408;-86
2024/03/25 06:22:46;;;;;;;10.13;4.20;;;;;;;;;;6084290;23;20447;-87
2024/03/25 06:25:21;;;;;;;7.73;4.07;;;;;;;;;;6083077;23;20408;-85
2024/03/25 06:28:06;;;;;;;8.40;3.87;;;;;;;;;;6081204;23;20404;-87
2024/03/25 06:36:23;;;;;;;7.27;3.53;;;;;;;;;;6144343;23;20460;-87
2024/03/25 06:38:53;;;;;;;9.07;2.87;;;;;;;;;;6092144;23;20415;-88
2024/03/25 06:41:19;;;;;;;4.97;2.77;;;;;;;;;;6089513;23;20408;-86
2024/03/25 06:43:53;;;;;;;10.63;3.80;;;;;;;;;;6083577;23;20445;-85
2024/03/25 06:46:26;;;;;;;13.63;3.70;;;;;;;;;;6086806;23;20439;-86
2024/03/25 06:48:52;;;;;;;9.10;3.67;;;;;;;;;;6100538;23;20472;-86
2024/03/25 06:51:34;;;;;;;10.33;3.50;;;;;;;;;;6123909;23;20492;-87
2024/03/25 06:54:07;;;;;;;6.63;3.73;;;;;;;;;;6099790;23;20607;-85
2024/03/25 06:56:37;;;;;;;8.27;4.83;;;;;;;;;;6099559;23;20475;-89
2024/03/25 06:59:28;;;;;;;;;;;;;;;;;;;;;
2024/03/25 07:02:03;;;;;;;12.57;4.70;;;;;;;;;;6147674;23;20468;-87
2024/03/25 07:07:54;;;;;;;16.83;5.13;;;;;;;;;;6117314;23;20487;-85
2024/03/25 07:10:27;;;;;;;6.70;3.73;;;;;;;;;;6088120;23;20408;-87
2024/03/25 07:12:56;;;;;;;10.97;4.13;;;;;;;;;;6086210;23;20400;-89
2024/03/25 07:15:38;;;;;;;8.53;3.77;;;;;;;;;;6093432;23;20558;-87
2024/03/25 07:18:14;;;;;;;17.60;4.90;;;;;;;;;;6092911;23;20425;-86
2024/03/25 07:20:54;;;;;;;7.73;3.97;;;;;;;;;;6091797;23;20416;-85
2024/03/25 07:23:20;;;;;;;12.93;4.63;;;;;;;;;;6084276;23;20444;-86
2024/03/25 07:25:50;;;;;;;8.77;4.93;;;;;;;;;;6094084;23;20417;-87
2024/03/25 07:28:30;;;;;;;10.83;4.53;;;;;;;;;;6073809;23;20463;-86
2024/03/25 07:31:15;;;;;;;10.17;4.30;;;;;;;;;;6097386;23;20403;-86
2024/03/25 07:33:51;;;;;;;6.90;3.57;;;;;;;;;;6109892;23;20412;-87
2024/03/25 07:36:29;;;;;;;8.03;4.00;;;;;;;;;;6131440;23;20400;-87
2024/03/25 07:39:06;;;;;;;7.67;3.57;;;;;;;;;;6127469;23;20448;-85
2024/03/25 07:41:40;;;;;;;7.07;3.17;;;;;;;;;;6077670;23;20409;-87
2024/03/25 07:44:38;;;;;;;9.07;4.90;;;;;;;;;;6101868;23;20436;-87
2024/03/25 07:47:05;;;;;;;6.70;3.33;;;;;;;;;;6076757;23;20883;-85
2024/03/25 07:49:39;;;;;;;7.97;3.30;;;;;;;;;;6078338;23;20431;-87
2024/03/25 07:52:11;;;;;;;7.97;3.53;;;;;;;;;;6078329;23;20883;-86
2024/03/25 07:55:08;;;;;;;11.17;3.77;;;;;;;;;;6101509;23;20453;-86
2024/03/25 07:57:37;;;;;;;4.83;2.90;;;;;;;;;;6078249;23;20405;-86
2024/03/25 08:00:27;;;;;;;7.73;3.73;;;;;;;;;;6102171;23;20409;-87
2024/03/25 08:03:00;;;;;;;6.77;3.50;;;;;;;;;;6107909;23;20433;-86
2024/03/25 08:05:52;;;;;;;8.23;2.90;;;;;;;;;;6077547;23;20409;-87
2024/03/25 08:08:22;;;;;;;8.90;3.13;;;;;;;;;;6073299;23;20425;-87
2024/03/25 08:11:07;;;;;;;11.30;3.70;;;;;;;;;;6073666;23;20424;-86
2024/03/25 08:13:34;;;;;;;10.33;3.90;;;;;;;;;;6088822;23;20412;-88
2024/03/25 08:16:08;;;;;;;9.83;3.53;;;;;;;;;;6093162;23;20467;-87
2024/03/25 08:18:40;;;;;;;8.47;3.20;;;;;;;;;;6101190;23;20821;-87
2024/03/25 08:21:15;;;;;;;7.10;2.60;;;;;;;;;;6077528;23;20511;-88
2024/03/25 08:23:41;;;;;;;8.43;4.40;;;;;;;;;;6076139;23;20440;-86
2024/03/25 08:26:13;;;;;;;10.40;3.63;;;;;;;;;;6078346;23;20417;-87
2024/03/25 08:28:41;;;;;;;10.83;4.13;;;;;;;;;;6077574;23;20436;-87
2024/03/25 08:31:08;;;;;;;7.13;3.67;;;;;;;;;;6077533;23;20899;-87
2024/03/25 08:33:34;;;;;;;7.70;3.10;;;;;;;;;;6078498;23;20411;-86
2024/03/25 08:36:03;;;;;;;10.60;3.20;;;;;;;;;;6078608;23;20479;-88
2024/03/25 08:38:35;;;;;;;9.50;3.10;;;;;;;;;;6079167;23;20432;-86
2024/03/25 08:41:04;;;;;;;6.60;2.70;;;;;;;;;;6079482;23;20401;-86
2024/03/25 08:43:40;;;;;;;7.73;4.40;;;;;;;;;;6078821;23;20449;-86
2024/03/25 08:46:07;;;;;;;8.13;3.83;;;;;;;;;;6101545;23;20412;-86
2024/03/25 08:48:33;;;;;;;10.40;3.60;;;;;;;;;;6077263;23;20472;-86
2024/03/25 08:51:07;;;;;;;7.57;3.40;;;;;;;;;;6081425;23;20409;-88
2024/03/25 08:53:47;;;;;;;13.20;3.30;;;;;;;;;;6096522;23;20472;-88
2024/03/25 08:56:14;;;;;;;5.73;2.30;;;;;;;;;;6097431;23;20518;-89
2024/03/25 08:58:40;;;;;;;11.03;3.00;;;;;;;;;;6083667;23;20491;-86
2024/03/25 09:01:08;;;;;;;6.40;2.43;;;;;;;;;;6080381;23;20759;-86
2024/03/25 09:03:35;;;;;;;4.50;2.47;;;;;;;;;;6085149;23;20467;-86
2024/03/25 09:06:01;;;;;;;6.37;2.37;;;;;;;;;;6103619;23;20471;-85
2024/03/25 09:08:27;;;;;;;4.40;2.60;;;;;;;;;;6077839;23;20425;-86
2024/03/25 09:14:01;;;;;;;6.23;2.67;;;;;;;;;;6109093;23;21021;-84
2024/03/25 09:16:28;;;;;;;6.37;2.23;;;;;;;;;;6106494;23;20404;-87
2024/03/25 09:18:55;;;;;;;5.23;2.33;;;;;;;;;;6083693;23;20420;-87
2024/03/25 09:21:24;;;;;;;10.17;2.53;;;;;;;;;;6090960;23;20410;-87
2024/03/25 09:23:59;;;;;;;7.80;2.27;;;;;;;;;;6092674;23;20452;-86
2024/03/25 09:26:28;;;;;;;7.87;3.00;;;;;;;;;;6091985;23;20415;-87
2024/03/25 09:28:54;;;;;;;5.23;3.10;;;;;;;;;;6087238;23;20423;-89
2024/03/25 09:31:23;;;;;;;6.67;2.80;;;;;;;;;;6091734;23;20415;-86
2024/03/25 09:33:51;;;;;;;6.27;2.80;;;;;;;;;;6139919;23;20407;-89
2024/03/25 09:36:18;;;;;;;7.47;2.53;;;;;;;;;;6093423;23;20405;-86
2024/03/25 09:38:44;;;;;;;6.40;3.20;;;;;;;;;;6092437;23;20520;-87
2024/03/25 09:41:11;;;;;;;5.90;3.27;;;;;;;;;;6116398;23;20417;-85
2024/03/25 09:43:50;;;;;;;5.33;2.77;;;;;;;;;;6092586;23;20447;-86
2024/03/25 09:46:21;;;;;;;6.67;2.60;;;;;;;;;;6095815;23;20414;-88
2024/03/25 09:48:56;;;;;;;9.40;2.60;;;;;;;;;;6095570;23;20492;-87
2024/03/25 09:51:49;;;;;;;12.57;2.93;;;;;;;;;;6093782;23;20436;-89
2024/03/25 09:54:15;;;;;;;6.13;2.10;;;;;;;;;;6109670;23;20415;-89
2024/03/25 09:56:50;;;;;;;10.03;2.57;;;;;;;;;;6080748;23;20420;-86
2024/03/25 09:59:20;;;;;;;5.30;2.10;;;;;;;;;;6082860;23;20427;-86
2024/03/25 10:01:48;;;;;;;8.43;2.43;;;;;;;;;;6108014;23;20413;-87
2024/03/25 10:04:26;;;;;;;9.60;2.27;;;;;;;;;;6083562;23;20492;-87
2024/03/25 10:07:07;;;;;;;5.23;3.00;;;;;;;;;;6087134;23;20408;-87
2024/03/25 10:09:41;;;;;;;7.97;4.07;;;;;;;;;;6075520;23;20413;-86
2024/03/25 10:12:15;;;;;;;5.77;2.13;;;;;;;;;;6083104;23;20408;-86
2024/03/25 10:14:42;;;;;;;9.00;2.50;;;;;;;;;;6074841;23;20859;-86
2024/03/25 10:17:19;;;;;;;5.03;2.40;;;;;;;;;;6106874;23;20415;-86
2024/03/25 10:19:49;;;;;;;4.47;2.10;;;;;;;;;;6083908;23;20424;-87
2024/03/25 10:22:44;;;;;;;7.40;2.30;;;;;;;;;;6082964;23;20742;-84
2024/03/25 10:25:24;;;;;;;5.73;1.77;;;;;;;;;;6081694;23;21100;-87
2024/03/25 10:28:02;;;;;;;3.47;1.97;;;;;;;;;;6082651;23;20819;-87
2024/03/25 10:30:31;;;;;;;3.97;2.30;;;;;;;;;;6079346;23;20422;-85
2024/03/25 10:33:19;;;;;;;;;;;;;;;;;;;;;
2024/03/25 10:35:49;;;;;;;6.87;1.83;;;;;;;;;;6100884;23;20397;-85
2024/03/25 10:38:27;;;;;;;3.93;2.10;;;;;;;;;;6085160;23;20683;-85
2024/03/25 10:40:56;;;;;;;6.00;2.07;;;;;;;;;;6113696;23;20432;-88
2024/03/25 10:43:30;;;;;;;3.73;2.30;;;;;;;;;;6087409;23;20444;-88
2024/03/25 10:46:05;;;;;;;3.20;1.50;;;;;;;;;;6134730;23;20448;-88
2024/03/25 10:48:40;;;;;;;3.60;2.33;;;;;;;;;;6078392;23;20432;-87
2024/03/25 10:51:10;;;;;;;5.27;2.00;;;;;;;;;;6110201;23;20401;-88
2024/03/25 10:53:42;;;;;;;3.13;1.93;;;;;;;;;;6082042;23;20483;-86
2024/03/25 10:56:09;;;;;;;7.07;2.57;;;;;;;;;;6081523;23;20411;-86
2024/03/25 10:58:45;;;;;;;3.83;1.83;;;;;;;;;;6079027;23;20450;-86
2024/03/25 11:01:39;;;;;;;4.23;2.63;;;;;;;;;;6082740;23;20623;-88
2024/03/25 11:04:05;;;;;;;4.53;1.93;;;;;;;;;;6081238;23;20440;-86
2024/03/25 11:06:35;;;;;;;4.00;1.77;;;;;;;;;;6079225;23;20773;-85
2024/03/25 11:09:01;;;;;;;3.73;1.93;;;;;;;;;;6078430;23;20427;-85
2024/03/25 11:23:01;;;;;;;3.57;1.93;;;;;;;;;;6005905;23;20507;-87
2024/03/25 11:26:00;;;;;;;4.00;2.20;;;;;;;;;;5921206;24;20418;-86
2024/03/25 11:31:42;;;;;;;5.90;2.10;;;;;;;;;;6090671;23;20408;-86
2024/03/25 11:34:16;;;;;;;6.07;1.83;;;;;;;;;;6136887;23;20546;-83
2024/03/25 11:36:48;;;;;;;4.87;2.13;;;;;;;;;;6112536;23;20738;-86
2024/03/25 11:39:18;;;;;;;6.00;2.03;;;;;;;;;;6089531;23;20425;-85
2024/03/25 11:45:07;;;;;;;3.77;1.83;;;;;;;;;;6123998;23;20953;-86
2024/03/25 11:47:39;;;;;;;5.13;2.00;;;;;;;;;;6090988;23;20404;-85
2024/03/25 11:50:13;;;;;;;3.60;1.90;;;;;;;;;;6093235;23;20397;-88
2024/03/25 11:52:42;;;;;;;3.33;2.10;;;;;;;;;;6068429;23;20475;-85
2024/03/25 11:55:09;;;;;;;5.37;2.47;;;;;;;;;;6058403;23;20423;-86
2024/03/25 11:57:41;;;;;;;4.60;2.20;;;;;;;;;;6056853;23;20423;-86
2024/03/25 12:00:19;;;;;;;3.97;1.60;;;;;;;;;;6054594;23;20412;-87
2024/03/25 12:02:47;;;;;;;2.47;1.43;;;;;;;;;;6055473;23;20454;-85
2024/03/25 12:05:16;;;;;;;4.17;1.97;;;;;;;;;;6053931;23;20416;-87
2024/03/25 12:07:51;;;;;;;4.37;1.83;;;;;;;;;;6054321;23;20463;-86
2024/03/25 12:13:27;;;;;;;3.17;1.47;;;;;;;;;;6107414;23;20389;-87
2024/03/25 12:16:39;;;;;;;2.07;1.30;;;;;;;;;;6055682;23;20419;-85
2024/03/25 12:19:19;;;;;;;5.20;2.20;;;;;;;;;;6076662;23;20428;-86
2024/03/25 12:21:49;;;;;;;3.50;1.87;;;;;;;;;;6054857;23;20455;-84
2024/03/25 12:24:24;;;;;;;5.00;1.83;;;;;;;;;;6054397;23;20462;-84
2024/03/25 12:27:00;;;;;;;2.63;1.70;;;;;;;;;;6056018;23;20409;-86
2024/03/25 12:29:27;;;;;;;6.47;2.53;;;;;;;;;;6051635;23;20431;-88
2024/03/25 12:32:37;;;;;;;3.67;1.90;;;;;;;;;;6073122;23;20405;-86
2024/03/25 12:36:15;;;;;;;2.13;1.67;;;;;;;;;;6011611;23;20405;-86
2024/03/25 12:38:44;;;;;;;7.83;1.93;;;;;;;;;;6066561;23;20446;-85
2024/03/25 12:41:26;;;;;;;2.47;1.70;;;;;;;;;;6050322;23;20413;-85
2024/03/25 12:43:57;;;;;;;5.37;2.73;;;;;;;;;;6052401;23;20440;-85
2024/03/25 12:46:29;;;;;;;2.27;1.57;;;;;;;;;;6051694;23;20409;-85
2024/03/25 12:48:56;;;;;;;4.33;1.90;;;;;;;;;;6077636;23;20429;-85
2024/03/25 12:51:28;;;;;;;1.73;1.63;;;;;;;;;;6049141;23;20424;-87
2024/03/25 12:54:00;;;;;;;3.23;1.83;;;;;;;;;;6070910;23;20413;-86
2024/03/25 12:56:30;;;;;;;3.43;1.73;;;;;;;;;;6046830;23;20478;-87
2024/03/25 12:59:00;;;;;;;3.53;1.50;;;;;;;;;;6046615;23;20428;-87
2024/03/25 13:01:34;;;;;;;23.97;16.00;;;;;;;;;;6043902;23;21024;-86
2024/03/25 13:04:10;;;;;;;3.80;1.57;;;;;;;;;;6025660;23;20864;-86
2024/03/25 13:06:50;;;;;;;3.23;1.70;;;;;;;;;;6046623;23;20389;-86
2024/03/25 13:09:31;;;;;;;1.67;1.50;;;;;;;;;;6070627;23;21034;-87
2024/03/25 13:12:01;;;;;;;4.20;1.67;;;;;;;;;;6040651;23;20401;-87
2024/03/25 13:14:28;;;;;;;3.20;1.60;;;;;;;;;;6074178;23;20500;-88
2024/03/25 13:17:06;;;;;;;3.07;1.73;;;;;;;;;;6070566;23;20480;-86
2024/03/25 13:19:34;;;;;;;2.67;1.53;;;;;;;;;;6051070;23;20430;-84
2024/03/25 13:22:08;;;;;;;4.33;2.10;;;;;;;;;;6050070;23;20398;-87
2024/03/25 13:24:42;;;;;;;3.20;1.73;;;;;;;;;;6043596;23;20411;-87
2024/03/25 13:27:20;;;;;;;3.37;1.73;;;;;;;;;;6044485;23;20413;-87
2024/03/25 13:29:56;;;;;;;2.93;1.60;;;;;;;;;;6046335;23;20426;-84
2024/03/25 13:32:32;;;;;;;2.50;1.60;;;;;;;;;;6045773;23;20416;-87
2024/03/25 13:35:06;;;;;;;2.77;1.67;;;;;;;;;;6046787;23;20409;-88
2024/03/25 13:37:36;;;;;;;2.60;1.60;;;;;;;;;;6046726;23;21294;-86
2024/03/25 13:40:09;;;;;;;3.90;1.70;;;;;;;;;;6072035;23;20480;-85
2024/03/25 13:43:07;;;;;;;2.97;2.63;;;;;;;;;;6074134;23;20472;-87
2024/03/25 13:45:36;;;;;;;2.23;1.80;;;;;;;;;;6048838;23;20424;-85
2024/03/25 13:48:12;;;;;;;2.50;1.50;;;;;;;;;;6048037;23;21328;-87
2024/03/25 13:51:00;;;;;;;1.87;1.60;;;;;;;;;;6049315;23;20405;-86
2024/03/25 13:53:33;;;;;;;3.70;1.77;;;;;;;;;;6029955;23;20402;-86
2024/03/25 13:56:02;;;;;;;5.63;1.73;;;;;;;;;;6022866;23;20402;-86
2024/03/25 13:58:34;;;;;;;2.20;1.70;;;;;;;;;;6024280;23;20433;-84
2024/03/25 14:01:10;;;;;;;4.20;1.70;;;;;;;;;;6022393;23;20424;-85
2024/03/25 14:03:48;;;;;;;4.20;2.33;;;;;;;;;;6024280;23;20437;-88
2024/03/25 14:06:36;;;;;;;2.20;1.40;;;;;;;;;;6053624;23;20405;-88
2024/03/25 14:09:08;;;;;;;1.73;1.20;;;;;;;;;;6023696;23;20428;-86
2024/03/25 14:11:49;;;;;;;3.07;1.60;;;;;;;;;;6024643;23;20408;-85
2024/03/25 14:14:25;;;;;;;3.53;1.53;;;;;;;;;;6021097;23;20410;-86
2024/03/25 14:16:52;;;;;;;2.07;1.30;;;;;;;;;;6024949;23;20437;-87
2024/03/25 14:19:30;;;;;;;1.73;1.50;;;;;;;;;;6031815;23;20931;-87
2024/03/25 14:22:04;;;;;;;3.60;1.40;;;;;;;;;;6033153;23;20409;-86
2024/03/25 14:24:33;;;;;;;4.63;1.60;;;;;;;;;;6079973;23;20404;-82
2024/03/25 14:27:03;;;;;;;2.60;1.63;;;;;;;;;;6087601;23;20473;-87
2024/03/25 14:29:43;;;;;;;6.80;2.70;;;;;;;;;;6042992;23;20475;-85
2024/03/25 14:32:24;;;;;;;1.87;1.60;;;;;;;;;;6086813;23;20464;-87
2024/03/25 14:34:56;;;;;;;2.63;2.13;;;;;;;;;;6033603;23;20404;-85
2024/03/25 14:37:25;;;;;;;2.33;1.10;;;;;;;;;;6060244;23;20397;-85
2024/03/25 14:39:55;;;;;;;2.37;1.20;;;;;;;;;;6035413;23;20878;-86
2024/03/25 14:42:24;;;;;;;4.40;1.43;;;;;;;;;;6032296;23;20406;-86
2024/03/25 14:45:01;;;;;;;1.60;1.03;;;;;;;;;;6085688;23;20410;-86
2024/03/25 14:50:32;;;;;;;2.17;1.27;;;;;;;;;;6098821;23;20460;-87
2024/03/25 14:52:59;;;;;;;3.03;1.60;;;;;;;;;;6118938;23;20460;-85
2024/03/25 14:55:28;;;;;;;3.05;1.90;;;;;;;;;;6065884;23;20412;-86
2024/03/25 14:58:16;;;;;;;1.70;1.60;;;;;;;;;;6063369;23;20179;-87
2024/03/25 15:01:01;;;;;;;1.60;1.50;;;;;;;;;;6080590;23;20409;-86
2024/03/25 15:03:35;;;;;;;2.10;1.40;;;;;;;;;;6108684;23;20471;-86
2024/03/25 15:06:13;;;;;;;4.47;1.50;;;;;;;;;;6071695;23;20476;-87
2024/03/25 15:08:40;;;;;;;2.07;1.20;;;;;;;;;;6092549;23;20479;-86
2024/03/25 15:11:13;;;;;;;2.57;1.53;;;;;;;;;;6071991;23;20456;-86
2024/03/25 15:13:45;;;;;;;4.40;1.20;;;;;;;;;;6070023;23;20520;-88
2024/03/25 15:16:33;;;;;;;1.83;1.23;;;;;;;;;;6087512;23;20395;-87
2024/03/25 15:19:08;;;;;;;1.50;1.20;;;;;;;;;;6070321;23;20487;-87
2024/03/25 15:21:41;;;;;;;3.23;1.53;;;;;;;;;;6110353;23;20467;-87
2024/03/25 15:26:54;;;;;;;3.37;1.40;;;;;;;;;;6111806;23;20910;-86
2024/03/25 15:29:20;;;;;;;2.43;1.10;;;;;;;;;;6082602;23;20473;-87
2024/03/25 15:31:47;;;;;;;2.00;1.20;;;;;;;;;;6095094;23;20408;-86
2024/03/25 15:34:24;;;;;;;2.83;1.10;;;;;;;;;;6067468;23;20405;-84
2024/03/25 15:37:19;;;;;;;1.10;0.93;;;;;;;;;;6043158;23;20406;-86
2024/03/25 15:39:50;;;;;;;4.40;1.57;;;;;;;;;;6067373;23;20843;-86
2024/03/25 15:42:32;;;;;;;1.57;1.13;;;;;;;;;;6067211;23;20394;-87
2024/03/25 15:45:07;;;;;;;2.70;1.40;;;;;;;;;;6045302;23;20438;-86
2024/03/25 15:47:40;;;;;;;3.20;1.37;;;;;;;;;;6042665;23;20403;-85
2024/03/25 15:50:17;;;;;;;4.30;1.33;;;;;;;;;;6041188;23;20469;-84
2024/03/25 15:52:53;;;;;;;2.90;1.37;;;;;;;;;;6066170;23;20418;-84
2024/03/25 15:55:25;;;;;;;1.93;1.40;;;;;;;;;;6043336;23;20413;-83
2024/03/25 15:58:16;;;;;;;2.90;1.10;;;;;;;;;;6050576;23;20433;-85
2024/03/25 16:00:49;;;;;;;2.70;1.70;;;;;;;;;;6047751;23;20405;-85
2024/03/25 16:03:26;;;;;;;2.40;1.17;;;;;;;;;;6041798;23;20445;-86
2024/03/25 16:06:07;;;;;;;1.43;1.20;;;;;;;;;;6049633;23;20413;-85
2024/03/25 16:08:50;;;;;;;2.23;1.10;;;;;;;;;;6047642;23;20426;-86
2024/03/25 16:11:29;;;;;;;1.80;1.30;;;;;;;;;;6047018;23;20406;-87
2024/03/25 16:13:59;;;;;;;3.97;1.50;;;;;;;;;;6044362;23;20414;-87
2024/03/25 16:20:06;;;;;;;3.47;1.60;;;;;;;;;;6056108;23;20444;-86
2024/03/25 16:22:55;;;;;;;3.80;1.03;;;;;;;;;;6046544;23;20481;-87